createdAt,value
2022-12-19T00:01:19.242Z,-1.39
2022-12-19T00:03:47.552Z,-1.39
2022-12-19T00:06:15.230Z,-1.37
2022-12-19T00:08:43.272Z,-1.38
2022-12-19T00:11:11.307Z,-1.36
2022-12-19T00:13:41.068Z,-1.35
2022-12-19T00:16:12.101Z,-1.35
2022-12-19T00:18:43.828Z,-1.34
2022-12-19T00:21:12.221Z,-1.34
2022-12-19T00:23:38.772Z,-1.37
2022-12-19T00:26:13.745Z,-1.34
2022-12-19T00:28:45.072Z,-1.33
2022-12-19T00:31:11.627Z,-1.33
2022-12-19T00:33:42.578Z,-1.34
2022-12-19T00:36:22.423Z,-1.34
2022-12-19T00:38:51.275Z,-1.34
2022-12-19T00:41:22.499Z,-1.33
2022-12-19T00:43:57.280Z,-1.34
2022-12-19T00:46:24.676Z,-1.34
2022-12-19T00:48:51.458Z,-1.33
2022-12-19T00:51:20.120Z,-1.33
2022-12-19T00:53:48.432Z,-1.30
2022-12-19T00:56:18.254Z,-1.30
2022-12-19T00:58:47.148Z,-1.31
2022-12-19T01:01:20.928Z,-1.27
2022-12-19T01:04:11.290Z,-1.27
2022-12-19T01:06:34.723Z,-1.29
2022-12-19T01:09:01.390Z,-1.26
2022-12-19T01:11:46.319Z,-1.26
2022-12-19T01:14:20.724Z,-1.26
2022-12-19T01:16:49.630Z,-1.26
2022-12-19T01:19:16.108Z,-1.25
2022-12-19T01:21:42.626Z,-1.22
2022-12-19T01:24:09.658Z,-1.22
2022-12-19T01:26:36.106Z,-1.22
2022-12-19T01:29:02.536Z,-1.21
2022-12-19T01:31:29.054Z,-1.20
2022-12-19T01:33:55.585Z,-1.20
2022-12-19T01:36:22.858Z,-1.20
2022-12-19T01:38:49.310Z,-1.22
2022-12-19T01:41:15.903Z,-1.18
2022-12-19T01:44:07.063Z,-1.20
2022-12-19T01:46:37.309Z,-1.18
2022-12-19T01:49:06.245Z,-1.16
2022-12-19T01:51:39.673Z,-1.18
2022-12-19T01:54:09.925Z,-1.13
2022-12-19T01:56:40.379Z,-1.12
2022-12-19T01:59:13.264Z,-1.12
2022-12-19T02:01:51.770Z,-1.12
2022-12-19T02:04:23.474Z,-1.12
2022-12-19T02:06:51.787Z,-1.11
2022-12-19T02:09:18.935Z,-1.10
2022-12-19T02:11:46.024Z,-1.11
2022-12-19T02:14:12.863Z,-1.08
2022-12-19T02:16:47.945Z,-1.07
2022-12-19T02:19:52.618Z,-1.08
2022-12-19T02:22:33.355Z,-1.05
2022-12-19T02:25:18.043Z,-1.05
2022-12-19T02:28:30.315Z,-1.08
2022-12-19T02:30:57.883Z,-1.05
2022-12-19T02:33:38.372Z,-1.04
2022-12-19T02:36:15.202Z,-1.03
2022-12-19T02:38:57.336Z,-1.02
2022-12-19T02:41:43.059Z,-1.01
2022-12-19T02:44:35.711Z,-1.05
2022-12-19T02:47:05.411Z,-1.03
2022-12-19T02:49:36.142Z,-0.98
2022-12-19T02:52:18.743Z,-0.98
2022-12-19T02:54:52.000Z,-0.97
2022-12-19T02:57:24.818Z,-0.99
2022-12-19T03:00:03.953Z,-0.98
2022-12-19T03:03:06.585Z,-0.97
2022-12-19T03:05:42.280Z,-0.95
2022-12-19T03:08:08.704Z,-0.93
2022-12-19T03:10:44.252Z,-0.91
2022-12-19T03:13:29.477Z,-0.90
2022-12-19T03:15:57.975Z,-0.88
2022-12-19T03:18:24.884Z,-0.89
2022-12-19T03:21:17.572Z,-0.87
2022-12-19T03:23:45.917Z,-0.87
2022-12-19T03:26:17.793Z,-0.82
2022-12-19T03:28:51.562Z,-0.81
2022-12-19T03:31:19.425Z,-0.85
2022-12-19T03:33:48.110Z,-0.84
2022-12-19T03:36:21.112Z,-0.81
2022-12-19T03:38:48.894Z,-0.81
2022-12-19T03:41:38.786Z,-0.78
2022-12-19T03:44:08.575Z,-0.78
2022-12-19T03:46:40.794Z,-0.78
2022-12-19T03:49:07.344Z,-0.76
2022-12-19T03:51:46.089Z,-0.73
2022-12-19T03:54:39.054Z,-0.74
2022-12-19T03:57:23.716Z,-0.75
2022-12-19T04:00:17.512Z,-0.73
2022-12-19T04:02:48.094Z,-0.71
2022-12-19T04:05:26.131Z,-0.70
2022-12-19T04:07:57.696Z,-0.67
2022-12-19T04:10:26.798Z,-0.70
2022-12-19T04:13:16.352Z,-0.67
2022-12-19T04:16:10.671Z,-0.68
2022-12-19T04:18:38.725Z,-0.69
2022-12-19T04:21:30.373Z,-0.68
2022-12-19T04:24:09.980Z,-0.67
2022-12-19T04:26:39.102Z,-0.64
2022-12-19T04:29:07.839Z,-0.65
2022-12-19T04:31:35.983Z,-0.63
2022-12-19T04:34:02.436Z,-0.59
2022-12-19T04:36:29.400Z,-0.57
2022-12-19T04:38:56.086Z,-0.59
2022-12-19T04:41:22.535Z,-0.57
2022-12-19T04:43:48.994Z,-0.51
2022-12-19T04:46:15.465Z,-0.51
2022-12-19T04:48:41.995Z,-0.51
2022-12-19T04:51:08.684Z,-0.47
2022-12-19T04:53:35.613Z,-0.45
2022-12-19T04:56:06.808Z,-0.44
2022-12-19T04:58:33.758Z,-0.42
2022-12-19T05:01:08.341Z,-0.42
2022-12-19T05:03:36.058Z,-0.40
2022-12-19T05:06:04.515Z,-0.39
2022-12-19T05:08:31.001Z,-0.39
2022-12-19T05:11:02.115Z,-0.37
2022-12-19T05:13:30.177Z,-0.37
2022-12-19T05:16:05.973Z,-0.35
2022-12-19T05:18:32.657Z,-0.33
2022-12-19T05:20:59.551Z,-0.34
2022-12-19T05:23:26.063Z,-0.31
2022-12-19T05:25:52.822Z,-0.29
2022-12-19T05:28:19.649Z,-0.31
2022-12-19T05:30:51.951Z,-0.28
2022-12-19T05:33:18.900Z,-0.27
2022-12-19T05:35:45.581Z,-0.25
2022-12-19T05:38:12.003Z,-0.25
2022-12-19T05:40:38.465Z,-0.23
2022-12-19T05:43:04.908Z,-0.21
2022-12-19T05:45:31.310Z,-0.23
2022-12-19T05:48:01.294Z,-0.22
2022-12-19T05:50:28.160Z,-0.18
2022-12-19T05:52:54.619Z,-0.19
2022-12-19T05:55:21.028Z,-0.16
2022-12-19T05:57:47.447Z,-0.14
2022-12-19T06:00:14.465Z,-0.13
2022-12-19T06:02:41.000Z,-0.12
2022-12-19T06:05:08.109Z,-0.10
2022-12-19T06:07:35.026Z,-0.08
2022-12-19T06:10:01.620Z,-0.07
2022-12-19T06:12:28.128Z,-0.07
2022-12-19T06:14:54.762Z,-0.05
2022-12-19T06:17:21.731Z,-0.03
2022-12-19T06:19:48.303Z,-0.02
2022-12-19T06:22:14.770Z,0.01
2022-12-19T06:24:41.413Z,0.02
2022-12-19T06:27:07.919Z,0.02
2022-12-19T06:29:34.372Z,0.04
2022-12-19T06:32:00.827Z,0.07
2022-12-19T06:35:02.336Z,0.06
2022-12-19T06:37:13.712Z,0.10
2022-12-19T06:39:40.151Z,0.08
2022-12-19T06:42:24.502Z,0.10
2022-12-19T06:44:53.604Z,0.13
2022-12-19T06:47:22.101Z,0.15
2022-12-19T06:49:48.966Z,0.14
2022-12-19T06:52:17.117Z,0.20
2022-12-19T06:54:43.601Z,0.21
2022-12-19T06:57:09.995Z,0.24
2022-12-19T06:59:36.425Z,0.22
2022-12-19T07:02:27.251Z,0.24
2022-12-19T07:05:02.565Z,0.24
2022-12-19T07:07:29.106Z,0.25
2022-12-19T07:09:55.551Z,0.29
2022-12-19T07:12:21.959Z,0.30
2022-12-19T07:14:53.165Z,0.33
2022-12-19T07:17:21.617Z,0.33
2022-12-19T07:19:51.029Z,0.37
2022-12-19T07:22:17.613Z,0.38
2022-12-19T07:24:44.148Z,0.37
2022-12-19T07:27:11.083Z,0.40
2022-12-19T07:29:37.553Z,0.40
2022-12-19T07:32:04.442Z,0.40
2022-12-19T07:34:30.909Z,0.47
2022-12-19T07:36:57.527Z,0.47
2022-12-19T07:39:24.168Z,0.45
2022-12-19T07:41:50.597Z,0.48
2022-12-19T07:44:29.255Z,0.49
2022-12-19T07:46:55.782Z,0.52
2022-12-19T07:49:22.901Z,0.53
2022-12-19T07:51:50.480Z,0.53
2022-12-19T07:54:16.906Z,0.53
2022-12-19T07:56:43.377Z,0.54
2022-12-19T07:59:09.942Z,0.57
2022-12-19T08:01:36.400Z,0.59
2022-12-19T08:04:03.322Z,0.60
2022-12-19T08:06:29.798Z,0.62
2022-12-19T08:08:57.070Z,0.63
2022-12-19T08:11:27.372Z,0.66
2022-12-19T08:13:54.553Z,0.69
2022-12-19T08:16:21.590Z,0.69
2022-12-19T08:18:48.103Z,0.68
2022-12-19T08:21:14.615Z,0.68
2022-12-19T08:23:41.132Z,0.73
2022-12-19T08:26:11.592Z,0.73
2022-12-19T08:28:38.362Z,0.77
2022-12-19T08:31:10.999Z,0.78
2022-12-19T08:33:38.079Z,0.82
2022-12-19T08:36:09.892Z,0.81
2022-12-19T08:38:37.107Z,0.85
2022-12-19T08:41:04.005Z,0.84
2022-12-19T08:43:30.650Z,0.89
2022-12-19T08:45:57.854Z,0.88
2022-12-19T08:48:24.928Z,0.91
2022-12-19T08:50:57.372Z,0.92
2022-12-19T08:53:26.561Z,0.96
2022-12-19T08:55:58.288Z,0.95
2022-12-19T08:58:26.626Z,0.98
2022-12-19T09:00:57.621Z,1.00
2022-12-19T09:03:29.494Z,1.01
2022-12-19T09:06:12.023Z,1.02
2022-12-19T09:08:45.043Z,1.04
2022-12-19T09:11:14.899Z,1.05
2022-12-19T09:13:42.179Z,1.04
2022-12-19T09:16:12.958Z,1.08
2022-12-19T09:18:45.140Z,1.09
2022-12-19T09:21:15.632Z,1.13
2022-12-19T09:23:42.393Z,1.11
2022-12-19T09:26:12.074Z,1.13
2022-12-19T09:28:39.863Z,1.18
2022-12-19T09:31:08.550Z,1.19
2022-12-19T09:33:41.358Z,1.22
2022-12-19T09:36:15.478Z,1.21
2022-12-19T09:38:42.507Z,1.23
2022-12-19T09:41:34.849Z,1.25
2022-12-19T09:44:31.704Z,1.26
2022-12-19T09:47:04.231Z,1.27
2022-12-19T09:49:41.663Z,1.30
2022-12-19T09:52:19.010Z,1.31
2022-12-19T09:54:57.802Z,1.34
2022-12-19T09:57:37.192Z,1.36
2022-12-19T10:00:10.955Z,1.37
2022-12-19T10:02:46.472Z,1.41
2022-12-19T10:05:55.230Z,1.39
2022-12-19T10:08:27.773Z,1.42
2022-12-19T10:12:37.496Z,1.45
2022-12-19T10:14:22.490Z,1.45
2022-12-19T10:17:24.817Z,1.47
2022-12-19T10:20:19.319Z,1.50
2022-12-19T10:22:56.286Z,1.52
2022-12-19T10:25:28.833Z,1.54
2022-12-19T10:28:35.565Z,1.55
2022-12-19T10:31:20.645Z,1.58
2022-12-19T10:34:00.345Z,1.59
2022-12-19T10:36:56.004Z,1.64
2022-12-19T10:39:24.009Z,1.67
2022-12-19T10:41:56.296Z,1.69
2022-12-19T10:44:27.042Z,1.72
2022-12-19T10:46:53.639Z,1.74
2022-12-19T10:49:22.567Z,1.77
2022-12-19T10:51:56.126Z,1.79
2022-12-19T10:54:27.573Z,1.79
2022-12-19T10:57:27.550Z,1.82
2022-12-19T10:59:54.005Z,1.87
2022-12-19T11:02:39.570Z,1.90
2022-12-19T11:05:45.694Z,1.90
2022-12-19T11:08:16.244Z,1.93
2022-12-19T11:12:25.337Z,1.97
2022-12-19T11:19:14.015Z,1.98
2022-12-19T11:21:55.530Z,2.00
2022-12-19T11:29:33.481Z,2.05
2022-12-19T11:29:39.121Z,2.00
2022-12-19T11:29:40.576Z,2.02
2022-12-19T11:30:25.643Z,2.04
2022-12-19T11:34:21.319Z,2.12
2022-12-19T11:37:09.642Z,2.15
2022-12-19T11:39:47.065Z,2.19
2022-12-19T11:42:16.356Z,2.23
2022-12-19T11:44:58.110Z,2.23
2022-12-19T11:47:39.608Z,2.25
2022-12-19T11:50:24.791Z,2.26
2022-12-19T11:53:19.222Z,2.29
2022-12-19T11:56:16.604Z,2.29
2022-12-19T11:58:49.045Z,2.33
2022-12-19T12:02:02.219Z,2.32
2022-12-19T12:04:54.894Z,2.36
2022-12-19T12:08:30.086Z,2.36
2022-12-19T12:14:52.178Z,2.37
2022-12-19T12:22:42.147Z,2.42
2022-12-19T12:27:42.464Z,2.40
2022-12-19T12:31:26.567Z,2.42
2022-12-19T12:31:57.584Z,2.49
2022-12-19T12:32:02.058Z,2.49
2022-12-19T12:32:04.342Z,2.46
2022-12-19T12:35:46.567Z,2.53
2022-12-19T12:38:35.893Z,2.57
2022-12-19T12:41:47.863Z,2.60
2022-12-19T12:44:15.293Z,2.60
2022-12-19T12:46:52.023Z,2.64
2022-12-19T12:49:48.205Z,2.66
2022-12-19T12:52:20.011Z,2.67
2022-12-19T12:54:49.369Z,2.68
2022-12-19T12:57:18.812Z,2.72
2022-12-19T12:59:47.552Z,2.73
2022-12-19T13:02:22.602Z,2.76
2022-12-19T13:05:01.175Z,2.77
2022-12-19T13:07:42.765Z,2.79
2022-12-19T13:10:20.840Z,2.81
2022-12-19T13:12:59.908Z,2.79
2022-12-19T13:15:36.700Z,2.84
2022-12-19T13:18:14.515Z,2.84
2022-12-19T13:20:47.341Z,2.86
2022-12-19T13:23:24.503Z,2.89
2022-12-19T13:25:53.901Z,2.91
2022-12-19T13:28:20.265Z,2.93
2022-12-19T13:31:20.713Z,2.94
2022-12-19T13:33:56.210Z,2.96
2022-12-19T13:39:50.171Z,2.92
2022-12-19T13:39:57.475Z,2.95
2022-12-19T13:42:46.325Z,2.98
2022-12-19T13:45:21.887Z,3.00
2022-12-19T13:47:50.712Z,2.99
2022-12-19T13:50:37.465Z,3.03
2022-12-19T13:53:14.219Z,3.05
2022-12-19T13:55:41.959Z,3.06
2022-12-19T13:58:21.858Z,3.07
2022-12-19T14:01:01.196Z,3.11
2022-12-19T14:03:38.919Z,3.09
2022-12-19T14:06:20.569Z,3.13
2022-12-19T14:08:59.269Z,3.16
2022-12-19T14:12:11.841Z,3.16
2022-12-19T14:14:46.767Z,3.16
2022-12-19T14:17:20.141Z,3.22
2022-12-19T14:19:52.183Z,3.22
2022-12-19T14:22:25.531Z,3.23
2022-12-19T14:25:33.137Z,3.25
2022-12-19T14:28:21.571Z,3.25
2022-12-19T14:30:47.867Z,3.28
2022-12-19T14:33:47.019Z,3.32
2022-12-19T14:36:15.199Z,3.34
2022-12-19T14:39:23.113Z,3.34
2022-12-19T14:42:01.926Z,3.35
2022-12-19T14:54:02.257Z,3.34
2022-12-19T14:54:23.812Z,3.36
2022-12-19T14:54:24.920Z,3.40
2022-12-19T14:54:50.326Z,3.45
2022-12-19T14:59:01.572Z,3.49
2022-12-19T15:01:32.270Z,3.49
2022-12-19T15:04:51.503Z,3.51
2022-12-19T15:07:12.283Z,3.54
2022-12-19T15:11:08.478Z,3.56
2022-12-19T15:14:48.857Z,3.56
2022-12-19T15:16:05.236Z,3.58
2022-12-19T15:18:40.029Z,3.59
2022-12-19T15:21:12.523Z,3.63
2022-12-19T15:23:39.046Z,3.68
2022-12-19T15:26:13.045Z,3.71
2022-12-19T15:28:58.535Z,3.73
2022-12-19T15:31:34.863Z,3.73
2022-12-19T15:34:36.730Z,3.76
2022-12-19T15:37:04.767Z,3.80
2022-12-19T15:39:31.278Z,3.81
2022-12-19T15:41:59.715Z,3.83
2022-12-19T15:44:36.584Z,3.81
2022-12-19T15:47:06.387Z,3.89
2022-12-19T15:49:34.972Z,3.90
2022-12-19T15:52:02.260Z,3.90
2022-12-19T15:57:36.701Z,3.93
2022-12-19T16:00:08.583Z,3.96
2022-12-19T16:05:25.497Z,3.99
2022-12-19T16:07:52.513Z,4.00
2022-12-19T16:10:18.929Z,4.02
2022-12-19T16:12:51.068Z,4.02
2022-12-19T16:15:23.452Z,4.05
2022-12-19T16:17:49.884Z,4.04
2022-12-19T16:20:28.210Z,4.09
2022-12-19T16:22:55.318Z,4.10
2022-12-19T16:25:24.957Z,4.10
2022-12-19T16:27:57.033Z,4.14
2022-12-19T16:30:29.062Z,4.13
2022-12-19T16:32:55.560Z,4.17
2022-12-19T16:35:47.262Z,4.15
2022-12-19T16:38:10.711Z,4.20
2022-12-19T16:40:37.347Z,4.20
2022-12-19T16:43:12.765Z,4.23
2022-12-19T16:45:39.453Z,4.25
2022-12-19T16:48:19.064Z,4.25
2022-12-19T16:50:46.141Z,4.28
2022-12-19T16:53:12.574Z,4.30
2022-12-19T16:55:39.443Z,4.26
2022-12-19T16:58:06.128Z,4.31
2022-12-19T17:00:37.486Z,4.33
2022-12-19T17:03:18.643Z,4.35
2022-12-19T17:05:45.238Z,4.36
2022-12-19T17:08:12.753Z,4.34
2022-12-19T17:10:40.874Z,4.37
2022-12-19T17:13:07.313Z,4.38
2022-12-19T17:15:36.939Z,4.41
2022-12-19T17:18:15.924Z,4.38
2022-12-19T17:20:44.382Z,4.41
2022-12-19T17:23:13.213Z,4.43
2022-12-19T17:25:39.723Z,4.44
2022-12-19T17:28:06.169Z,4.46
2022-12-19T17:30:33.925Z,4.48
2022-12-19T17:33:00.482Z,4.47
2022-12-19T17:35:30.468Z,4.48
2022-12-19T17:37:58.256Z,4.49
2022-12-19T17:40:31.838Z,4.50
2022-12-19T17:42:59.469Z,4.51
2022-12-19T17:45:29.252Z,4.50
2022-12-19T17:48:02.891Z,4.49
2022-12-19T17:50:32.354Z,4.48
2022-12-19T17:52:58.808Z,4.48
2022-12-19T17:55:30.041Z,4.51
2022-12-19T17:57:57.090Z,4.54
2022-12-19T18:00:30.426Z,4.55
2022-12-19T18:03:01.317Z,4.57
2022-12-19T18:05:31.928Z,4.58
2022-12-19T18:07:58.401Z,4.56
2022-12-19T18:10:28.037Z,4.55
2022-12-19T18:12:55.167Z,4.60
2022-12-19T18:15:22.754Z,4.61
2022-12-19T18:17:51.232Z,4.62
2022-12-19T18:20:31.848Z,4.62
2022-12-19T18:23:00.704Z,4.64
2022-12-19T18:25:30.939Z,4.65
2022-12-19T18:27:58.498Z,4.66
2022-12-19T18:30:25.734Z,4.65
2022-12-19T18:33:00.396Z,4.67
2022-12-19T18:35:36.408Z,4.65
2022-12-19T18:38:15.382Z,4.66
2022-12-19T18:40:42.613Z,4.69
2022-12-19T18:43:12.959Z,4.69
2022-12-19T18:45:47.245Z,4.69
2022-12-19T18:48:25.712Z,4.71
2022-12-19T18:50:59.316Z,4.70
2022-12-19T18:53:35.269Z,4.73
2022-12-19T18:56:03.999Z,4.72
2022-12-19T18:58:30.451Z,4.71
2022-12-19T19:00:59.713Z,4.75
2022-12-19T19:03:31.190Z,4.77
2022-12-19T19:05:58.227Z,4.75
2022-12-19T19:08:27.589Z,4.78
2022-12-19T19:11:23.391Z,4.78
2022-12-19T19:13:50.739Z,4.77
2022-12-19T19:16:20.907Z,4.81
2022-12-19T19:18:51.999Z,4.82
2022-12-19T19:21:20.424Z,4.77
2022-12-19T19:23:52.309Z,4.82
2022-12-19T19:26:18.755Z,4.82
2022-12-19T19:28:51.772Z,4.85
2022-12-19T19:31:21.287Z,4.85
2022-12-19T19:33:52.059Z,4.85
2022-12-19T19:36:23.019Z,4.87
2022-12-19T19:38:52.972Z,4.87
2022-12-19T19:41:21.133Z,4.86
2022-12-19T19:43:47.541Z,4.89
2022-12-19T19:46:14.074Z,4.90
2022-12-19T19:48:42.449Z,4.90
2022-12-19T19:51:09.542Z,4.91
2022-12-19T19:53:36.460Z,4.89
2022-12-19T19:56:03.915Z,4.89
2022-12-19T19:58:31.099Z,4.93
2022-12-19T20:00:58.068Z,4.88
2022-12-19T20:03:25.147Z,4.92
2022-12-19T20:06:01.770Z,4.92
2022-12-19T20:08:33.637Z,4.95
2022-12-19T20:11:05.334Z,4.94
2022-12-19T20:13:32.285Z,4.95
2022-12-19T20:16:15.934Z,4.95
2022-12-19T20:18:48.531Z,4.95
2022-12-19T20:21:15.356Z,4.96
2022-12-19T20:23:43.219Z,4.97
2022-12-19T20:26:11.308Z,4.98
2022-12-19T20:28:43.713Z,4.98
2022-12-19T20:31:14.403Z,4.98
2022-12-19T20:33:41.038Z,4.99
2022-12-19T20:36:10.091Z,5.00
2022-12-19T20:38:37.280Z,4.99
2022-12-19T20:41:03.873Z,5.02
2022-12-19T20:43:30.464Z,5.01
2022-12-19T20:46:11.760Z,5.00
2022-12-19T20:48:38.810Z,4.98
2022-12-19T20:51:06.088Z,5.00
2022-12-19T20:53:34.687Z,5.02
2022-12-19T20:56:03.321Z,5.03
2022-12-19T20:58:31.600Z,5.01
2022-12-19T21:01:06.195Z,5.03
2022-12-19T21:03:33.097Z,5.03
2022-12-19T21:05:59.948Z,5.04
2022-12-19T21:08:27.571Z,5.05
2022-12-19T21:10:54.264Z,5.01
2022-12-19T21:13:23.935Z,5.02
2022-12-19T21:15:55.206Z,5.05
2022-12-19T21:18:21.934Z,5.05
2022-12-19T21:20:49.984Z,5.02
2022-12-19T21:23:16.425Z,5.04
2022-12-19T21:25:42.905Z,5.03
2022-12-19T21:28:09.462Z,5.03
2022-12-19T21:30:35.967Z,5.03
2022-12-19T21:33:02.925Z,5.02
2022-12-19T21:35:30.205Z,5.02
2022-12-19T21:37:56.609Z,4.99
2022-12-19T21:40:23.045Z,5.00
2022-12-19T21:42:49.487Z,5.02
2022-12-19T21:45:16.135Z,5.01
2022-12-19T21:47:43.025Z,5.00
2022-12-19T21:50:11.308Z,5.01
2022-12-19T21:52:38.535Z,4.98
2022-12-19T21:55:07.671Z,5.00
2022-12-19T21:57:41.291Z,4.99
2022-12-19T22:00:10.507Z,4.98
2022-12-19T22:02:37.801Z,5.00
2022-12-19T22:05:05.421Z,5.00
2022-12-19T22:07:31.926Z,5.00
2022-12-19T22:09:58.614Z,5.01
2022-12-19T22:12:25.770Z,5.00
2022-12-19T22:14:52.358Z,5.00
2022-12-19T22:17:18.775Z,5.00
2022-12-19T22:19:45.404Z,5.00
2022-12-19T22:22:11.840Z,5.01
2022-12-19T22:24:38.280Z,5.01
2022-12-19T22:27:04.743Z,4.98
2022-12-19T22:29:36.280Z,4.98
2022-12-19T22:32:04.374Z,4.97
2022-12-19T22:34:30.957Z,4.98
2022-12-19T22:36:57.404Z,4.99
2022-12-19T22:39:24.115Z,4.99
2022-12-19T22:41:50.545Z,5.00
2022-12-19T22:44:22.529Z,5.01
2022-12-19T22:46:49.844Z,4.99
2022-12-19T22:49:16.880Z,4.98
2022-12-19T22:51:43.489Z,5.02
2022-12-19T22:54:11.908Z,5.03
2022-12-19T22:56:38.535Z,5.00
2022-12-19T22:59:08.224Z,5.03
2022-12-19T23:01:38.796Z,5.02
2022-12-19T23:04:07.591Z,5.03
2022-12-19T23:06:36.133Z,5.04
2022-12-19T23:09:04.519Z,5.04
2022-12-19T23:11:37.769Z,5.06
2022-12-19T23:14:06.381Z,5.05
2022-12-19T23:16:33.254Z,5.04
2022-12-19T23:18:59.943Z,5.04
2022-12-19T23:21:26.756Z,5.05
2022-12-19T23:23:55.054Z,5.08
2022-12-19T23:26:27.316Z,5.06
2022-12-19T23:29:02.129Z,5.04
2022-12-19T23:31:29.389Z,5.09
2022-12-19T23:33:56.666Z,5.08
2022-12-19T23:37:00.519Z,5.10
2022-12-19T23:39:11.878Z,5.10
2022-12-19T23:41:38.783Z,5.10
2022-12-19T23:44:05.739Z,5.10
2022-12-19T23:46:32.226Z,5.14
2022-12-19T23:48:58.688Z,5.10
2022-12-19T23:51:27.284Z,5.14
2022-12-19T23:53:55.675Z,5.13
2022-12-19T23:56:28.125Z,5.14
2022-12-19T23:58:55.659Z,5.15
